createdAt,value
2022-12-27T00:00:27.900Z,48.18
2022-12-27T00:01:27.875Z,45.92
2022-12-27T00:02:28.894Z,45.44
2022-12-27T00:03:27.856Z,47.37
2022-12-27T00:04:27.841Z,45.76
2022-12-27T00:05:27.842Z,47.86
2022-12-27T00:06:27.819Z,47.86
2022-12-27T00:07:27.825Z,46.73
2022-12-27T00:08:27.831Z,48.34
2022-12-27T00:09:27.817Z,47.53
2022-12-27T00:10:27.807Z,51.24
2022-12-27T00:11:27.805Z,46.73
2022-12-27T00:12:27.817Z,45.92
2022-12-27T00:13:27.791Z,46.08
2022-12-27T00:14:27.781Z,47.53
2022-12-27T00:15:27.777Z,48.02
2022-12-27T00:16:27.805Z,45.60
2022-12-27T00:17:27.759Z,45.92
2022-12-27T00:18:27.745Z,45.44
2022-12-27T00:19:27.736Z,45.76
2022-12-27T00:20:27.732Z,47.05
2022-12-27T00:21:27.738Z,45.60
2022-12-27T00:22:27.738Z,47.70
2022-12-27T00:23:27.715Z,50.11
2022-12-27T00:24:27.732Z,47.70
2022-12-27T00:25:27.682Z,45.92
2022-12-27T00:26:27.700Z,46.41
2022-12-27T00:27:27.684Z,45.76
2022-12-27T00:28:27.671Z,46.89
2022-12-27T00:29:27.676Z,47.21
2022-12-27T00:30:27.660Z,50.27
2022-12-27T00:31:27.690Z,48.50
2022-12-27T00:32:27.674Z,47.53
2022-12-27T00:33:27.657Z,46.41
2022-12-27T00:34:27.633Z,46.41
2022-12-27T00:35:27.649Z,46.25
2022-12-27T00:36:27.619Z,46.25
2022-12-27T00:37:27.624Z,46.89
2022-12-27T00:38:27.620Z,46.41
2022-12-27T00:39:27.603Z,46.25
2022-12-27T00:40:27.663Z,48.82
2022-12-27T00:41:27.648Z,47.53
2022-12-27T00:42:27.588Z,46.25
2022-12-27T00:43:27.576Z,46.08
2022-12-27T00:44:27.568Z,48.98
2022-12-27T00:45:27.637Z,48.98
2022-12-27T00:46:27.575Z,45.92
2022-12-27T00:47:27.566Z,46.25
2022-12-27T00:48:27.551Z,45.92
2022-12-27T00:49:27.541Z,45.76
2022-12-27T00:50:27.520Z,45.76
2022-12-27T00:51:27.546Z,48.50
2022-12-27T00:52:27.516Z,46.73
2022-12-27T00:53:27.511Z,46.08
2022-12-27T00:54:27.519Z,45.60
2022-12-27T00:55:27.515Z,45.60
2022-12-27T00:56:27.484Z,48.50
2022-12-27T00:57:27.484Z,47.21
2022-12-27T00:58:27.468Z,46.41
2022-12-27T00:59:27.470Z,45.76
2022-12-27T01:00:27.461Z,46.08
2022-12-27T01:01:27.674Z,45.92
2022-12-27T01:02:27.443Z,45.92
2022-12-27T01:03:27.448Z,46.25
2022-12-27T01:04:27.435Z,45.60
2022-12-27T01:05:27.437Z,46.25
2022-12-27T01:06:27.441Z,46.41
2022-12-27T01:07:27.428Z,46.89
2022-12-27T01:08:27.410Z,45.60
2022-12-27T01:09:27.400Z,46.08
2022-12-27T01:10:27.392Z,46.25
2022-12-27T01:11:27.388Z,46.73
2022-12-27T01:12:27.402Z,46.57
2022-12-27T01:13:27.372Z,49.63
2022-12-27T01:14:27.393Z,48.34
2022-12-27T01:15:27.457Z,46.57
2022-12-27T01:16:27.418Z,47.21
2022-12-27T01:17:27.359Z,47.21
2022-12-27T01:18:27.344Z,50.11
2022-12-27T01:19:27.362Z,50.60
2022-12-27T01:20:27.335Z,46.41
2022-12-27T01:21:27.333Z,48.02
2022-12-27T01:22:27.353Z,45.76
2022-12-27T01:23:27.316Z,46.08
2022-12-27T01:24:27.312Z,47.86
2022-12-27T01:25:27.288Z,46.73
2022-12-27T01:26:27.293Z,46.41
2022-12-27T01:27:27.289Z,46.57
2022-12-27T01:28:27.276Z,47.70
2022-12-27T01:29:27.276Z,47.05
2022-12-27T01:30:27.273Z,46.08
2022-12-27T01:31:27.281Z,47.21
2022-12-27T01:32:27.259Z,46.25
2022-12-27T01:33:27.250Z,48.50
2022-12-27T01:34:27.249Z,46.73
2022-12-27T01:35:27.239Z,46.41
2022-12-27T01:36:27.227Z,50.27
2022-12-27T01:37:27.224Z,49.15
2022-12-27T01:38:27.236Z,47.70
2022-12-27T01:39:27.211Z,47.21
2022-12-27T01:40:27.209Z,47.05
2022-12-27T01:41:27.202Z,49.63
2022-12-27T01:42:27.188Z,47.70
2022-12-27T01:43:27.192Z,48.98
2022-12-27T01:44:27.176Z,48.18
2022-12-27T01:45:27.226Z,48.50
2022-12-27T01:46:27.165Z,52.37
2022-12-27T01:47:27.174Z,46.89
2022-12-27T01:48:27.141Z,48.98
2022-12-27T01:49:27.148Z,47.86
2022-12-27T01:50:27.136Z,47.37
2022-12-27T01:51:27.134Z,46.73
2022-12-27T01:52:27.135Z,49.31
2022-12-27T01:53:27.104Z,46.25
2022-12-27T01:54:27.109Z,45.92
2022-12-27T01:55:27.112Z,46.25
2022-12-27T01:56:27.103Z,45.12
2022-12-27T01:57:27.084Z,45.76
2022-12-27T01:58:27.099Z,47.05
2022-12-27T01:59:27.078Z,48.98
2022-12-27T02:00:27.069Z,50.60
2022-12-27T02:01:27.162Z,46.73
2022-12-27T02:02:27.154Z,46.08
2022-12-27T02:03:27.060Z,46.41
2022-12-27T02:04:28.060Z,46.73
2022-12-27T02:05:27.038Z,48.34
2022-12-27T02:06:27.049Z,48.82
2022-12-27T02:07:27.036Z,45.60
2022-12-27T02:08:27.026Z,46.41
2022-12-27T02:09:27.017Z,48.18
2022-12-27T02:10:27.017Z,48.18
2022-12-27T02:11:26.996Z,45.92
2022-12-27T02:12:26.984Z,47.21
2022-12-27T02:13:26.984Z,47.53
2022-12-27T02:14:28.304Z,45.92
2022-12-27T02:15:27.977Z,45.76
2022-12-27T02:16:27.009Z,45.76
2022-12-27T02:17:26.966Z,46.41
2022-12-27T02:18:26.960Z,47.21
2022-12-27T02:19:26.953Z,49.63
2022-12-27T02:20:26.977Z,50.60
2022-12-27T02:21:26.927Z,46.25
2022-12-27T02:22:26.927Z,46.25
2022-12-27T02:23:26.929Z,45.60
2022-12-27T02:24:26.923Z,47.37
2022-12-27T02:25:26.916Z,49.95
2022-12-27T02:26:27.906Z,48.82
2022-12-27T02:27:26.891Z,47.37
2022-12-27T02:28:26.880Z,47.05
2022-12-27T02:29:26.883Z,45.60
2022-12-27T02:30:26.976Z,45.76
2022-12-27T02:31:26.878Z,45.76
2022-12-27T02:32:26.864Z,45.76
2022-12-27T02:33:26.857Z,45.44
2022-12-27T02:34:26.845Z,46.25
2022-12-27T02:35:26.859Z,49.15
2022-12-27T02:36:26.835Z,47.86
2022-12-27T02:37:26.834Z,50.27
2022-12-27T02:38:26.830Z,46.89
2022-12-27T02:39:26.819Z,46.89
2022-12-27T02:40:26.829Z,48.18
2022-12-27T02:41:26.805Z,46.57
2022-12-27T02:42:26.797Z,48.34
2022-12-27T02:43:26.790Z,46.25
2022-12-27T02:44:26.790Z,45.76
2022-12-27T02:45:26.776Z,46.73
2022-12-27T02:46:26.803Z,46.08
2022-12-27T02:47:26.760Z,45.44
2022-12-27T02:48:26.753Z,46.25
2022-12-27T02:49:26.751Z,45.92
2022-12-27T02:50:26.744Z,46.08
2022-12-27T02:51:26.763Z,50.43
2022-12-27T02:52:26.730Z,47.21
2022-12-27T02:53:26.735Z,47.86
2022-12-27T02:54:26.743Z,45.44
2022-12-27T02:55:26.709Z,45.92
2022-12-27T02:56:26.728Z,45.92
2022-12-27T02:57:26.696Z,45.60
2022-12-27T02:58:26.710Z,47.53
2022-12-27T02:59:26.677Z,45.76
2022-12-27T03:00:26.683Z,45.76
2022-12-27T03:01:26.720Z,45.44
2022-12-27T03:02:26.834Z,45.76
2022-12-27T03:03:26.675Z,45.92
2022-12-27T03:04:26.676Z,46.41
2022-12-27T03:05:26.657Z,46.57
2022-12-27T03:06:26.648Z,45.92
2022-12-27T03:07:26.657Z,49.15
2022-12-27T03:08:26.632Z,50.76
2022-12-27T03:09:26.629Z,47.86
2022-12-27T03:10:26.614Z,50.11
2022-12-27T03:11:26.620Z,46.08
2022-12-27T03:12:26.609Z,49.15
2022-12-27T03:13:26.607Z,47.86
2022-12-27T03:14:26.633Z,47.53
2022-12-27T03:15:30.444Z,47.53
2022-12-27T03:16:27.667Z,46.57
2022-12-27T03:17:26.578Z,51.40
2022-12-27T03:18:26.576Z,47.21
2022-12-27T03:19:26.576Z,46.25
2022-12-27T03:20:26.572Z,48.50
2022-12-27T03:21:26.552Z,46.08
2022-12-27T03:22:26.549Z,45.92
2022-12-27T03:23:26.554Z,50.11
2022-12-27T03:24:26.538Z,49.47
2022-12-27T03:25:26.529Z,47.21
2022-12-27T03:26:26.531Z,48.02
2022-12-27T03:27:26.516Z,47.05
2022-12-27T03:28:26.640Z,48.50
2022-12-27T03:29:26.500Z,47.53
2022-12-27T03:30:26.529Z,47.21
2022-12-27T03:31:26.503Z,46.41
2022-12-27T03:32:26.475Z,47.70
2022-12-27T03:33:26.484Z,47.37
2022-12-27T03:34:27.493Z,47.37
2022-12-27T03:35:26.462Z,47.53
2022-12-27T03:36:26.455Z,50.43
2022-12-27T03:37:26.456Z,49.79
2022-12-27T03:38:26.524Z,50.11
2022-12-27T03:39:26.454Z,48.50
2022-12-27T03:40:26.438Z,49.47
2022-12-27T03:41:26.449Z,47.70
2022-12-27T03:42:26.440Z,48.66
2022-12-27T03:43:26.416Z,49.15
2022-12-27T03:44:26.416Z,46.57
2022-12-27T03:45:26.411Z,46.08
2022-12-27T03:46:26.432Z,46.89
2022-12-27T03:47:26.387Z,50.27
2022-12-27T03:48:26.371Z,51.08
2022-12-27T03:49:26.409Z,49.63
2022-12-27T03:50:26.364Z,49.31
2022-12-27T03:51:26.439Z,50.11
2022-12-27T03:52:26.360Z,49.79
2022-12-27T03:53:26.348Z,50.43
2022-12-27T03:54:26.517Z,52.37
2022-12-27T03:55:32.979Z,48.02
2022-12-27T03:56:27.337Z,49.95
2022-12-27T03:57:26.328Z,48.18
2022-12-27T03:58:26.324Z,49.47
2022-12-27T03:59:26.305Z,46.41
2022-12-27T04:00:26.288Z,47.21
2022-12-27T04:01:26.409Z,46.57
2022-12-27T04:02:26.522Z,49.31
2022-12-27T04:03:26.398Z,46.89
2022-12-27T04:04:26.272Z,50.60
2022-12-27T04:05:26.274Z,47.53
2022-12-27T04:06:26.266Z,46.57
2022-12-27T04:07:26.263Z,46.57
2022-12-27T04:08:26.246Z,49.15
2022-12-27T04:09:26.229Z,48.66
2022-12-27T04:10:26.227Z,48.34
2022-12-27T04:11:26.230Z,48.34
2022-12-27T04:12:26.211Z,47.21
2022-12-27T04:13:26.212Z,49.47
2022-12-27T04:14:26.198Z,50.60
2022-12-27T04:15:26.214Z,52.21
2022-12-27T04:16:26.311Z,51.88
2022-12-27T04:17:26.176Z,47.86
2022-12-27T04:18:26.175Z,50.27
2022-12-27T04:19:26.170Z,52.85
2022-12-27T04:20:26.160Z,50.92
2022-12-27T04:21:26.178Z,49.79
2022-12-27T04:22:26.158Z,47.70
2022-12-27T04:23:26.153Z,49.63
2022-12-27T04:24:26.174Z,49.63
2022-12-27T04:25:26.139Z,47.70
2022-12-27T04:26:26.160Z,49.79
2022-12-27T04:27:26.150Z,50.92
2022-12-27T04:28:26.111Z,49.31
2022-12-27T04:29:26.113Z,48.82
2022-12-27T04:30:26.118Z,51.56
2022-12-27T04:31:26.184Z,50.92
2022-12-27T04:32:26.135Z,50.92
2022-12-27T04:33:26.084Z,52.37
2022-12-27T04:34:26.069Z,51.08
2022-12-27T04:35:26.185Z,51.88
2022-12-27T04:36:26.064Z,52.37
2022-12-27T04:37:26.058Z,50.43
2022-12-27T04:38:26.042Z,50.76
2022-12-27T04:39:26.083Z,52.21
2022-12-27T04:40:26.038Z,52.05
2022-12-27T04:41:26.021Z,53.66
2022-12-27T04:42:26.027Z,53.82
2022-12-27T04:43:26.013Z,54.14
2022-12-27T04:44:26.013Z,52.05
2022-12-27T04:45:26.000Z,49.63
2022-12-27T04:46:26.019Z,53.50
2022-12-27T04:47:25.998Z,51.88
2022-12-27T04:48:25.970Z,53.33
2022-12-27T04:49:26.998Z,52.53
2022-12-27T04:50:25.977Z,53.33
2022-12-27T04:51:25.980Z,53.98
2022-12-27T04:52:25.949Z,51.24
2022-12-27T04:53:25.944Z,51.24
2022-12-27T04:54:25.966Z,54.95
2022-12-27T04:55:25.928Z,53.50
2022-12-27T04:56:25.919Z,52.85
2022-12-27T04:57:25.923Z,50.92
2022-12-27T04:58:25.931Z,52.37
2022-12-27T04:59:25.914Z,53.82
2022-12-27T05:00:25.907Z,50.76
2022-12-27T05:01:26.005Z,50.27
2022-12-27T05:02:26.065Z,51.40
2022-12-27T05:03:25.947Z,54.14
2022-12-27T05:04:25.883Z,53.50
2022-12-27T05:05:26.156Z,53.17
2022-12-27T05:06:25.857Z,53.66
2022-12-27T05:07:25.841Z,48.98
2022-12-27T05:08:28.660Z,51.72
2022-12-27T05:09:25.853Z,50.11
2022-12-27T05:10:25.858Z,54.30
2022-12-27T05:11:25.829Z,50.60
2022-12-27T05:12:25.826Z,55.59
2022-12-27T05:13:25.837Z,54.30
2022-12-27T05:14:25.831Z,53.33
2022-12-27T05:15:25.819Z,53.50
2022-12-27T05:16:25.885Z,56.88
2022-12-27T05:17:25.783Z,51.40
2022-12-27T05:18:25.760Z,51.88
2022-12-27T05:19:26.787Z,53.17
2022-12-27T05:20:25.765Z,52.21
2022-12-27T05:21:25.773Z,53.33
2022-12-27T05:22:25.765Z,54.62
2022-12-27T05:23:25.744Z,55.27
2022-12-27T05:24:25.755Z,56.88
2022-12-27T05:25:25.751Z,54.30
2022-12-27T05:26:25.734Z,53.98
2022-12-27T05:27:25.738Z,53.33
2022-12-27T05:28:25.749Z,54.14
2022-12-27T05:29:25.718Z,52.05
2022-12-27T05:30:25.703Z,53.33
2022-12-27T05:31:25.727Z,55.11
2022-12-27T05:32:25.684Z,51.88
2022-12-27T05:33:25.678Z,50.76
2022-12-27T05:34:25.695Z,53.17
2022-12-27T05:35:25.673Z,53.17
2022-12-27T05:36:25.670Z,51.88
2022-12-27T05:37:25.648Z,53.33
2022-12-27T05:38:25.649Z,55.91
2022-12-27T05:39:25.647Z,55.11
2022-12-27T05:40:25.639Z,56.88
2022-12-27T05:41:25.623Z,54.14
2022-12-27T05:42:25.611Z,54.95
2022-12-27T05:43:25.620Z,57.52
2022-12-27T05:44:25.611Z,53.01
2022-12-27T05:45:25.632Z,56.40
2022-12-27T05:46:25.635Z,54.46
2022-12-27T05:47:25.579Z,55.27
2022-12-27T05:48:25.574Z,56.88
2022-12-27T05:49:25.591Z,56.40
2022-12-27T05:50:25.583Z,55.75
2022-12-27T05:51:25.573Z,55.27
2022-12-27T05:52:25.634Z,55.91
2022-12-27T05:53:25.552Z,54.95
2022-12-27T05:54:25.547Z,53.98
2022-12-27T05:55:25.547Z,54.95
2022-12-27T05:56:25.608Z,55.11
2022-12-27T05:57:25.522Z,54.79
2022-12-27T05:58:25.535Z,57.85
2022-12-27T05:59:25.536Z,53.01
2022-12-27T06:00:25.515Z,53.98
2022-12-27T06:01:25.591Z,55.43
2022-12-27T06:02:25.582Z,54.95
2022-12-27T06:03:25.542Z,54.79
2022-12-27T06:04:26.474Z,56.40
2022-12-27T06:05:25.466Z,56.24
2022-12-27T06:06:25.464Z,55.11
2022-12-27T06:07:25.473Z,53.82
2022-12-27T06:08:25.447Z,55.91
2022-12-27T06:09:25.431Z,55.91
2022-12-27T06:10:26.431Z,53.66
2022-12-27T06:11:25.432Z,54.14
2022-12-27T06:12:25.431Z,53.98
2022-12-27T06:13:25.412Z,56.56
2022-12-27T06:14:25.410Z,55.75
2022-12-27T06:15:25.454Z,54.79
2022-12-27T06:16:25.423Z,57.04
2022-12-27T06:17:25.397Z,56.24
2022-12-27T06:18:25.384Z,56.40
2022-12-27T06:19:25.372Z,57.20
2022-12-27T06:20:25.368Z,54.46
2022-12-27T06:21:25.355Z,57.04
2022-12-27T06:22:25.385Z,58.17
2022-12-27T06:23:25.351Z,55.59
2022-12-27T06:24:25.339Z,53.82
2022-12-27T06:25:25.330Z,54.46
2022-12-27T06:26:25.334Z,56.24
2022-12-27T06:27:25.309Z,57.52
2022-12-27T06:28:25.335Z,56.88
2022-12-27T06:29:25.311Z,50.92
2022-12-27T06:30:25.310Z,55.43
2022-12-27T06:31:25.349Z,56.07
2022-12-27T06:32:25.296Z,57.52
2022-12-27T06:33:25.283Z,53.98
2022-12-27T06:34:25.280Z,54.30
2022-12-27T06:35:25.276Z,56.24
2022-12-27T06:36:25.275Z,57.20
2022-12-27T06:37:25.258Z,58.17
2022-12-27T06:38:25.249Z,56.40
2022-12-27T06:39:25.246Z,57.52
2022-12-27T06:40:26.173Z,58.65
2022-12-27T06:41:25.232Z,58.17
2022-12-27T06:42:25.224Z,55.75
2022-12-27T06:43:25.214Z,55.43
2022-12-27T06:44:25.232Z,57.69
2022-12-27T06:45:25.289Z,56.56
2022-12-27T06:46:25.290Z,54.79
2022-12-27T06:47:25.206Z,56.88
2022-12-27T06:48:25.184Z,58.97
2022-12-27T06:49:25.179Z,57.52
2022-12-27T06:50:25.160Z,56.72
2022-12-27T06:51:25.180Z,56.40
2022-12-27T06:52:25.159Z,55.27
2022-12-27T06:53:25.154Z,54.95
2022-12-27T06:54:25.155Z,55.91
2022-12-27T06:55:25.129Z,56.72
2022-12-27T06:56:26.138Z,56.07
2022-12-27T06:57:25.112Z,55.11
2022-12-27T06:58:25.113Z,57.04
2022-12-27T06:59:25.148Z,58.49
2022-12-27T07:00:25.108Z,59.30
2022-12-27T07:01:25.246Z,58.49
2022-12-27T07:02:25.248Z,56.24
2022-12-27T07:03:25.076Z,55.59
2022-12-27T07:04:25.086Z,53.66
2022-12-27T07:05:25.099Z,54.62
2022-12-27T07:06:25.060Z,54.14
2022-12-27T07:07:25.058Z,54.30
2022-12-27T07:08:25.046Z,55.59
2022-12-27T07:09:25.063Z,53.50
2022-12-27T07:10:25.046Z,54.79
2022-12-27T07:11:26.033Z,54.46
2022-12-27T07:12:25.016Z,56.72
2022-12-27T07:13:25.010Z,58.65
2022-12-27T07:14:25.001Z,56.07
2022-12-27T07:15:26.020Z,55.27
2022-12-27T07:16:25.076Z,56.72
2022-12-27T07:17:24.977Z,57.85
2022-12-27T07:18:24.973Z,56.40
2022-12-27T07:19:24.985Z,57.36
2022-12-27T07:20:24.965Z,56.24
2022-12-27T07:21:24.955Z,52.69
2022-12-27T07:22:25.052Z,57.52
2022-12-27T07:23:24.939Z,58.01
2022-12-27T07:24:24.938Z,56.88
2022-12-27T07:25:24.940Z,57.52
2022-12-27T07:26:24.924Z,57.20
2022-12-27T07:27:24.919Z,56.40
2022-12-27T07:28:24.909Z,57.36
2022-12-27T07:29:24.920Z,54.95
2022-12-27T07:30:24.903Z,55.27
2022-12-27T07:31:24.945Z,56.07
2022-12-27T07:32:24.884Z,56.56
2022-12-27T07:33:24.880Z,55.27
2022-12-27T07:34:24.897Z,56.24
2022-12-27T07:35:24.865Z,56.24
2022-12-27T07:36:24.865Z,56.72
2022-12-27T07:37:24.852Z,57.04
2022-12-27T07:38:24.848Z,57.69
2022-12-27T07:39:24.833Z,57.52
2022-12-27T07:40:24.836Z,56.72
2022-12-27T07:41:24.824Z,57.36
2022-12-27T07:42:24.826Z,59.78
2022-12-27T07:43:24.818Z,56.07
2022-12-27T07:44:24.804Z,58.17
2022-12-27T07:45:24.814Z,60.59
2022-12-27T07:46:24.807Z,57.04
2022-12-27T07:47:24.856Z,58.81
2022-12-27T07:48:24.776Z,55.43
2022-12-27T07:49:24.766Z,55.27
2022-12-27T07:50:24.814Z,57.69
2022-12-27T07:51:24.779Z,57.04
2022-12-27T07:52:24.755Z,57.52
2022-12-27T07:53:24.732Z,59.14
2022-12-27T07:54:24.747Z,57.69
2022-12-27T07:55:24.730Z,59.30
2022-12-27T07:56:26.796Z,54.46
2022-12-27T07:57:25.696Z,58.81
2022-12-27T07:58:24.719Z,58.97
2022-12-27T07:59:24.696Z,57.52
2022-12-27T08:00:24.678Z,57.04
2022-12-27T08:01:24.729Z,60.26
2022-12-27T08:02:24.904Z,62.52
2022-12-27T08:03:24.753Z,56.07
2022-12-27T08:04:24.662Z,58.33
2022-12-27T08:05:27.910Z,58.17
2022-12-27T08:06:24.660Z,59.14
2022-12-27T08:07:24.673Z,60.75
2022-12-27T08:08:24.647Z,62.68
2022-12-27T08:09:24.624Z,62.68
2022-12-27T08:10:24.630Z,60.75
2022-12-27T08:11:24.634Z,60.91
2022-12-27T08:12:24.627Z,60.59
2022-12-27T08:13:24.606Z,60.91
2022-12-27T08:14:24.605Z,60.10
2022-12-27T08:15:24.582Z,59.94
2022-12-27T08:16:24.685Z,59.94
2022-12-27T08:17:24.579Z,55.91
2022-12-27T08:18:25.577Z,55.91
2022-12-27T08:19:24.583Z,57.36
2022-12-27T08:20:24.569Z,56.88
2022-12-27T08:21:24.545Z,58.17
2022-12-27T08:22:24.575Z,55.11
2022-12-27T08:23:24.543Z,56.88
2022-12-27T08:24:24.554Z,57.85
2022-12-27T08:25:24.520Z,58.33
2022-12-27T08:26:24.547Z,58.65
2022-12-27T08:27:24.512Z,59.94
2022-12-27T08:28:24.501Z,57.69
2022-12-27T08:29:24.521Z,58.01
2022-12-27T08:30:24.484Z,60.10
2022-12-27T08:31:24.547Z,60.91
2022-12-27T08:32:24.471Z,60.10
2022-12-27T08:33:24.558Z,58.49
2022-12-27T08:34:24.466Z,56.88
2022-12-27T08:35:51.663Z,57.52
2022-12-27T08:36:56.578Z,56.24
2022-12-27T08:37:26.441Z,56.24
2022-12-27T08:38:24.449Z,58.81
2022-12-27T08:39:24.611Z,56.88
2022-12-27T08:40:24.424Z,55.59
2022-12-27T08:41:24.406Z,54.79
2022-12-27T08:42:24.405Z,56.07
2022-12-27T08:43:24.381Z,57.04
2022-12-27T08:44:24.395Z,55.75
2022-12-27T08:45:24.384Z,57.52
2022-12-27T08:46:24.478Z,58.81
2022-12-27T08:47:24.372Z,55.75
2022-12-27T08:48:24.406Z,55.27
2022-12-27T08:49:24.359Z,57.85
2022-12-27T08:50:24.351Z,56.24
2022-12-27T08:51:33.109Z,57.69
2022-12-27T08:52:26.346Z,56.88
2022-12-27T08:53:24.329Z,56.24
2022-12-27T08:54:24.340Z,57.85
2022-12-27T08:55:24.326Z,56.88
2022-12-27T08:56:24.308Z,57.36
2022-12-27T08:57:24.330Z,56.88
2022-12-27T08:58:24.301Z,55.75
2022-12-27T08:59:24.306Z,56.88
2022-12-27T09:00:24.292Z,56.07
2022-12-27T09:01:24.340Z,55.91
2022-12-27T09:02:24.367Z,57.69
2022-12-27T09:03:24.284Z,55.59
2022-12-27T09:04:24.278Z,58.17
2022-12-27T09:05:24.249Z,57.36
2022-12-27T09:06:24.244Z,56.07
2022-12-27T09:07:24.234Z,54.46
2022-12-27T09:08:24.221Z,57.20
2022-12-27T09:09:24.216Z,56.40
2022-12-27T09:10:24.221Z,54.46
2022-12-27T09:11:25.292Z,54.14
2022-12-27T09:12:24.194Z,57.36
2022-12-27T09:13:24.186Z,54.46
2022-12-27T09:14:24.178Z,53.33
2022-12-27T09:15:24.194Z,54.30
2022-12-27T09:16:24.160Z,57.04
2022-12-27T09:17:25.154Z,57.36
2022-12-27T09:18:24.163Z,54.95
2022-12-27T09:19:24.153Z,58.97
2022-12-27T09:20:24.172Z,57.04
2022-12-27T09:21:24.142Z,56.88
2022-12-27T09:22:24.134Z,57.20
2022-12-27T09:23:24.117Z,58.49
2022-12-27T09:24:24.114Z,58.65
2022-12-27T09:25:24.160Z,57.20
2022-12-27T09:26:24.121Z,57.85
2022-12-27T09:27:24.148Z,56.24
2022-12-27T09:28:24.146Z,59.14
2022-12-27T09:29:25.073Z,60.10
2022-12-27T09:30:24.098Z,58.65
2022-12-27T09:31:24.122Z,57.52
2022-12-27T09:32:24.062Z,60.26
2022-12-27T09:33:24.061Z,57.85
2022-12-27T09:34:24.051Z,58.97
2022-12-27T09:35:24.062Z,59.62
2022-12-27T09:36:24.035Z,57.36
2022-12-27T09:37:24.042Z,57.69
2022-12-27T09:38:24.033Z,58.81
2022-12-27T09:39:24.007Z,58.17
2022-12-27T09:40:25.047Z,58.49
2022-12-27T09:42:25.626Z,53.82
2022-12-27T09:42:49.587Z,54.14
2022-12-27T09:43:27.800Z,58.17
2022-12-27T09:44:24.980Z,56.72
2022-12-27T09:45:23.974Z,57.52
2022-12-27T09:46:24.058Z,56.88
2022-12-27T09:47:23.973Z,60.10
2022-12-27T09:48:29.274Z,58.65
2022-12-27T09:49:25.946Z,58.33
2022-12-27T09:50:23.987Z,59.62
2022-12-27T09:51:23.937Z,58.33
2022-12-27T09:52:23.947Z,58.17
2022-12-27T09:53:23.935Z,58.17
2022-12-27T09:54:23.917Z,57.85
2022-12-27T09:55:23.907Z,58.65
2022-12-27T09:56:23.905Z,57.85
2022-12-27T09:57:23.915Z,55.91
2022-12-27T09:58:23.893Z,59.94
2022-12-27T09:59:23.891Z,55.91
2022-12-27T10:00:34.566Z,59.14
2022-12-27T10:01:25.068Z,57.04
2022-12-27T10:02:23.968Z,58.97
2022-12-27T10:03:23.872Z,57.69
2022-12-27T10:04:24.270Z,56.88
2022-12-27T10:05:23.966Z,55.75
2022-12-27T10:06:23.829Z,58.33
2022-12-27T10:07:23.824Z,57.36
2022-12-27T10:08:23.846Z,58.17
2022-12-27T10:09:23.821Z,56.40
2022-12-27T10:10:23.816Z,58.17
2022-12-27T10:11:23.804Z,54.79
2022-12-27T10:12:29.645Z,55.91
2022-12-27T10:13:25.815Z,56.40
2022-12-27T10:14:23.780Z,53.82
2022-12-27T10:15:23.787Z,56.24
2022-12-27T10:16:23.781Z,56.40
2022-12-27T10:17:23.759Z,53.33
2022-12-27T10:18:23.761Z,55.43
2022-12-27T10:19:23.785Z,57.69
2022-12-27T10:20:23.746Z,57.04
2022-12-27T10:21:23.746Z,57.20
2022-12-27T10:22:23.723Z,54.46
2022-12-27T10:23:23.724Z,57.52
2022-12-27T10:24:23.713Z,59.94
2022-12-27T10:25:23.717Z,55.75
2022-12-27T10:26:23.702Z,56.40
2022-12-27T10:27:23.698Z,54.62
2022-12-27T10:28:23.691Z,54.79
2022-12-27T10:29:23.692Z,56.40
2022-12-27T10:30:23.677Z,56.24
2022-12-27T10:31:23.710Z,57.04
2022-12-27T10:32:23.644Z,58.01
2022-12-27T10:33:23.653Z,57.69
2022-12-27T10:34:23.642Z,56.40
2022-12-27T10:35:23.642Z,55.75
2022-12-27T10:36:23.637Z,54.79
2022-12-27T10:37:23.632Z,57.04
2022-12-27T10:38:23.618Z,58.33
2022-12-27T10:39:23.605Z,59.14
2022-12-27T10:40:23.608Z,57.52
2022-12-27T10:41:23.597Z,57.36
2022-12-27T10:42:23.586Z,57.20
2022-12-27T10:43:23.590Z,58.97
2022-12-27T10:44:23.591Z,57.52
2022-12-27T10:45:23.581Z,58.17
2022-12-27T10:46:27.491Z,57.85
2022-12-27T10:47:23.560Z,56.56
2022-12-27T10:48:23.557Z,56.88
2022-12-27T10:49:23.539Z,55.59
2022-12-27T10:50:23.577Z,56.88
2022-12-27T10:51:23.542Z,56.88
2022-12-27T10:52:23.527Z,54.95
2022-12-27T10:53:23.510Z,57.04
2022-12-27T10:54:23.521Z,56.07
2022-12-27T10:55:23.498Z,56.88
2022-12-27T10:56:23.501Z,56.56
2022-12-27T10:57:23.513Z,55.91
2022-12-27T10:58:23.489Z,56.56
2022-12-27T10:59:23.479Z,57.36
2022-12-27T11:00:23.502Z,56.24
2022-12-27T11:01:23.603Z,57.52
2022-12-27T11:02:23.569Z,56.40
2022-12-27T11:03:23.444Z,57.36
2022-12-27T11:04:23.459Z,59.30
2022-12-27T11:05:23.464Z,58.65
2022-12-27T11:06:23.441Z,57.52
2022-12-27T11:07:23.442Z,55.59
2022-12-27T11:08:23.417Z,57.20
2022-12-27T11:09:23.416Z,57.52
2022-12-27T11:10:23.403Z,56.72
2022-12-27T11:11:23.391Z,57.52
2022-12-27T11:12:23.389Z,58.01
2022-12-27T11:13:23.392Z,57.04
2022-12-27T11:14:23.365Z,59.14
2022-12-27T11:15:23.363Z,58.65
2022-12-27T11:16:23.410Z,59.46
2022-12-27T11:17:23.358Z,54.95
2022-12-27T11:18:23.349Z,56.24
2022-12-27T11:19:23.329Z,57.04
2022-12-27T11:20:23.347Z,57.52
2022-12-27T11:21:27.723Z,57.69
2022-12-27T11:22:24.331Z,58.49
2022-12-27T11:23:23.352Z,59.30
2022-12-27T11:24:23.304Z,58.65
2022-12-27T11:25:23.305Z,57.69
2022-12-27T11:26:23.288Z,57.20
2022-12-27T11:27:23.295Z,57.85
2022-12-27T11:28:23.284Z,58.81
2022-12-27T11:29:23.273Z,55.43
2022-12-27T11:30:23.258Z,58.33
2022-12-27T11:31:23.306Z,56.24
2022-12-27T11:32:23.246Z,58.49
2022-12-27T11:33:25.132Z,57.36
2022-12-27T11:34:24.233Z,57.04
2022-12-27T11:35:23.217Z,58.17
2022-12-27T11:36:23.213Z,60.59
2022-12-27T11:37:23.210Z,55.11
2022-12-27T11:38:23.210Z,58.49
2022-12-27T11:39:23.185Z,57.85
2022-12-27T11:40:23.187Z,58.65
2022-12-27T11:41:27.738Z,58.33
2022-12-27T11:42:24.177Z,57.69
2022-12-27T11:43:23.165Z,56.56
2022-12-27T11:44:23.180Z,59.46
2022-12-27T11:45:23.149Z,56.56
2022-12-27T11:46:23.191Z,56.56
2022-12-27T11:47:23.192Z,55.11
2022-12-27T11:48:23.124Z,57.52
2022-12-27T11:49:23.139Z,57.04
2022-12-27T11:50:23.149Z,56.72
2022-12-27T11:51:23.106Z,55.91
2022-12-27T11:52:23.109Z,55.91
2022-12-27T11:53:23.097Z,56.88
2022-12-27T11:54:23.119Z,58.49
2022-12-27T11:55:23.085Z,59.62
2022-12-27T11:56:23.088Z,56.40
2022-12-27T11:57:23.073Z,58.81
2022-12-27T11:58:23.073Z,57.36
2022-12-27T11:59:23.082Z,58.17
2022-12-27T12:00:23.058Z,56.56
2022-12-27T12:01:23.103Z,56.40
2022-12-27T12:02:23.103Z,57.36
2022-12-27T12:03:23.050Z,58.01
2022-12-27T12:04:23.050Z,58.49
2022-12-27T12:05:23.031Z,55.91
2022-12-27T12:06:23.018Z,56.56
2022-12-27T12:07:23.011Z,57.20
2022-12-27T12:08:22.997Z,57.69
2022-12-27T12:09:22.997Z,57.20
2022-12-27T12:10:23.035Z,59.14
2022-12-27T12:11:22.992Z,58.33
2022-12-27T12:12:22.982Z,54.95
2022-12-27T12:13:22.972Z,58.01
2022-12-27T12:14:22.988Z,55.91
2022-12-27T12:15:22.969Z,58.81
2022-12-27T12:16:23.002Z,59.62
2022-12-27T12:17:22.941Z,57.36
2022-12-27T12:18:22.945Z,58.17
2022-12-27T12:19:22.938Z,57.36
2022-12-27T12:20:22.927Z,57.04
2022-12-27T12:21:22.923Z,56.24
2022-12-27T12:22:22.910Z,58.01
2022-12-27T12:23:22.902Z,57.04
2022-12-27T12:24:23.895Z,57.20
2022-12-27T12:25:22.909Z,56.07
2022-12-27T12:26:22.901Z,57.36
2022-12-27T12:27:22.879Z,58.97
2022-12-27T12:28:55.690Z,59.62
2022-12-27T12:29:24.866Z,57.36
2022-12-27T12:30:27.333Z,58.65
2022-12-27T12:31:23.876Z,57.20
2022-12-27T12:32:22.854Z,57.52
2022-12-27T12:33:22.832Z,58.81
2022-12-27T12:34:22.828Z,59.46
2022-12-27T12:35:22.816Z,56.88
2022-12-27T12:36:22.815Z,58.97
2022-12-27T12:37:22.813Z,58.49
2022-12-27T12:38:22.805Z,56.56
2022-12-27T12:39:22.776Z,58.81
2022-12-27T12:40:22.809Z,58.65
2022-12-27T12:41:22.784Z,58.49
2022-12-27T12:42:22.788Z,59.30
2022-12-27T12:43:22.756Z,57.85
2022-12-27T12:44:22.774Z,58.01
2022-12-27T12:45:22.753Z,58.17
2022-12-27T12:46:22.776Z,57.20
2022-12-27T12:47:22.748Z,56.07
2022-12-27T12:48:22.724Z,58.81
2022-12-27T12:49:22.721Z,59.14
2022-12-27T12:50:22.759Z,58.01
2022-12-27T12:51:22.705Z,57.04
2022-12-27T12:52:22.726Z,59.62